createdAt,value
2023-04-06T00:09:42.798Z,97924.66
2023-04-06T00:19:45.195Z,97923.41
2023-04-06T00:29:47.553Z,97911.44
2023-04-06T00:39:50.102Z,97900.75
2023-04-06T00:49:53.635Z,97901.12
2023-04-06T00:59:56.130Z,97890.00
2023-04-06T01:09:59.111Z,97889.09
2023-04-06T01:20:01.710Z,97882.50
2023-04-06T01:30:04.417Z,97875.50
2023-04-06T01:40:20.352Z,97872.97
2023-04-06T01:50:22.603Z,97876.53
2023-04-06T02:00:24.904Z,97875.25
2023-04-06T02:10:27.377Z,97865.75
2023-04-06T02:20:29.718Z,97862.81
2023-04-06T02:30:34.083Z,97858.25
2023-04-06T02:40:36.472Z,97862.00
2023-04-06T02:50:38.984Z,97854.13
2023-04-06T03:00:41.293Z,97864.81
2023-04-06T03:10:43.707Z,97849.66
2023-04-06T03:20:46.078Z,97846.06
2023-04-06T03:30:48.554Z,97848.28
2023-04-06T03:40:50.892Z,97844.87
2023-04-06T03:50:53.287Z,97855.28
2023-04-06T04:00:55.620Z,97854.53
2023-04-06T04:10:58.101Z,97850.59
2023-04-06T04:21:00.514Z,97864.81
2023-04-06T04:31:02.772Z,97867.34
2023-04-06T04:41:05.112Z,97876.19
2023-04-06T04:51:07.620Z,97881.69
2023-04-06T05:01:10.713Z,97884.84
2023-04-06T05:11:13.320Z,97892.50
2023-04-06T05:21:15.770Z,97904.00
2023-04-06T05:31:18.360Z,97907.88
2023-04-06T05:41:21.789Z,97915.31
2023-04-06T05:51:24.666Z,97924.03
2023-04-06T06:01:27.247Z,97931.03
2023-04-06T06:11:29.999Z,97935.53
2023-04-06T06:21:32.751Z,97944.44
2023-04-06T06:31:35.236Z,97936.06
2023-04-06T06:41:37.597Z,97946.09
2023-04-06T06:51:40.060Z,97933.38
2023-04-06T07:01:42.888Z,97951.47
2023-04-06T07:11:45.806Z,97955.53
2023-04-06T07:21:50.442Z,97966.84
2023-04-06T07:31:52.963Z,97958.69
2023-04-06T07:41:55.710Z,97960.41
2023-04-06T07:51:58.334Z,97962.31
2023-04-06T08:02:00.689Z,97964.78
2023-04-06T08:12:03.321Z,97963.44
2023-04-06T08:22:05.973Z,97972.41
2023-04-06T08:32:08.596Z,97965.75
2023-04-06T08:42:40.962Z,97961.81
2023-04-06T08:52:45.541Z,97973.34
2023-04-06T09:02:50.749Z,97980.22
2023-04-06T09:13:04.170Z,97978.59
2023-04-06T09:23:06.586Z,97975.84
2023-04-06T09:33:09.075Z,97973.25
2023-04-06T09:43:11.653Z,97977.47
2023-04-06T09:53:14.811Z,97968.88
2023-04-06T10:03:31.119Z,97961.34
2023-04-06T10:13:34.700Z,97955.72
2023-04-06T10:23:45.554Z,97951.78
2023-04-06T10:33:59.472Z,97947.72
2023-04-06T10:44:02.761Z,97956.63
2023-04-06T10:54:06.739Z,97940.78
2023-04-06T11:04:11.148Z,97945.97
2023-04-06T11:14:13.857Z,97940.03
2023-04-06T11:24:25.280Z,97938.59
2023-04-06T11:34:30.208Z,97928.09
2023-04-06T11:44:42.192Z,97917.47
2023-04-06T11:54:44.878Z,97919.69
2023-04-06T12:04:47.819Z,97909.56
2023-04-06T12:14:50.210Z,97899.03
2023-04-06T12:24:52.803Z,97906.47
2023-04-06T12:34:55.080Z,97897.03
2023-04-06T12:44:57.675Z,97885.53
2023-04-06T12:55:01.555Z,97902.22
2023-04-06T13:05:04.805Z,97880.19
2023-04-06T13:15:07.753Z,97885.94
2023-04-06T13:25:10.368Z,97880.09
2023-04-06T13:35:13.146Z,97879.59
2023-04-06T13:45:16.042Z,97863.00
2023-04-06T13:55:18.496Z,97862.47
2023-04-06T14:05:20.949Z,97851.75
2023-04-06T14:15:24.046Z,97851.09
2023-04-06T14:25:27.522Z,97842.28
2023-04-06T14:35:32.149Z,97841.78
2023-04-06T14:45:37.963Z,97836.44
2023-04-06T14:55:42.580Z,97827.91
2023-04-06T15:05:45.618Z,97833.94
2023-04-06T15:15:48.237Z,97839.34
2023-04-06T15:25:51.032Z,97830.09
2023-04-06T15:35:53.738Z,97828.34
2023-04-06T15:45:58.215Z,97828.72
2023-04-06T15:56:05.788Z,97830.94
2023-04-06T16:06:09.313Z,97823.50
2023-04-06T16:16:12.015Z,97826.31
2023-04-06T16:26:18.901Z,97808.84
2023-04-06T16:36:25.818Z,97802.25
2023-04-06T16:46:36.391Z,97792.94
2023-04-06T16:56:39.029Z,97788.91
2023-04-06T17:06:41.687Z,97791.37
2023-04-06T17:16:44.554Z,97788.69
2023-04-06T17:26:47.173Z,97787.44
2023-04-06T17:36:49.488Z,97783.69
2023-04-06T17:46:52.171Z,97796.09
2023-04-06T17:56:55.264Z,97792.53
2023-04-06T18:06:58.238Z,97804.03
2023-04-06T18:17:01.022Z,97804.97
2023-04-06T18:27:03.656Z,97826.19
2023-04-06T18:37:06.256Z,97829.59
2023-04-06T18:47:09.193Z,97825.25
2023-04-06T18:57:11.839Z,97848.22
2023-04-06T19:07:14.307Z,97862.53
2023-04-06T19:17:17.536Z,97869.59
2023-04-06T19:27:20.333Z,97884.38
2023-04-06T19:37:23.683Z,97887.28
2023-04-06T19:47:26.488Z,97899.00
2023-04-06T19:57:29.209Z,97881.06
2023-04-06T20:07:31.781Z,97884.94
2023-04-06T20:17:34.431Z,97891.25
2023-04-06T20:27:37.209Z,97871.69
2023-04-06T20:37:40.275Z,97868.94
2023-04-06T20:47:43.654Z,97858.94
2023-04-06T20:57:47.004Z,97852.59
2023-04-06T21:07:49.831Z,97844.63
2023-04-06T21:17:52.301Z,97852.84
2023-04-06T21:27:55.041Z,97842.19
2023-04-06T21:37:57.801Z,97838.84
2023-04-06T21:48:00.919Z,97830.19
2023-04-06T21:58:03.404Z,97829.16
2023-04-06T22:08:05.969Z,97829.41
2023-04-06T22:18:09.213Z,97831.28
2023-04-06T22:28:11.721Z,97817.94
2023-04-06T22:38:14.094Z,97823.22
2023-04-06T22:48:16.937Z,97819.00
2023-04-06T22:58:19.388Z,97797.53
2023-04-06T23:08:21.839Z,97790.56
2023-04-06T23:18:24.275Z,97775.00
2023-04-06T23:28:27.034Z,97762.16
2023-04-06T23:38:29.439Z,97753.53
2023-04-06T23:48:32.066Z,97742.72
2023-04-06T23:58:34.476Z,97728.63
